createdAt,value
2018-06-23T00:00:26.244Z,4.60
2018-06-23T00:02:55.170Z,5.83
2018-06-23T00:05:24.404Z,8.53
2018-06-23T00:07:53.428Z,5.20
2018-06-23T00:10:22.386Z,6.03
2018-06-23T00:12:51.351Z,6.97
2018-06-23T00:15:20.423Z,3.63
2018-06-23T00:17:49.379Z,6.20
2018-06-23T00:20:18.370Z,7.83
2018-06-23T00:22:47.434Z,6.00
2018-06-23T00:25:21.527Z,7.60
2018-06-23T00:27:50.523Z,10.00
2018-06-23T00:30:19.524Z,6.97
2018-06-23T00:32:48.485Z,9.67
2018-06-23T00:35:17.472Z,6.20
2018-06-23T00:37:46.533Z,6.00
2018-06-23T00:40:15.561Z,5.90
2018-06-23T00:42:44.890Z,7.10
2018-06-23T00:45:13.934Z,8.63
2018-06-23T00:47:42.942Z,4.10
2018-06-23T00:50:11.885Z,5.63
2018-06-23T00:52:40.858Z,4.00
2018-06-23T00:55:09.803Z,6.57
2018-06-23T00:57:38.865Z,6.17
2018-06-23T01:00:07.837Z,4.13
2018-06-23T01:02:36.818Z,5.10
2018-06-23T01:05:05.763Z,10.73
2018-06-23T01:07:34.763Z,5.20
2018-06-23T01:10:03.726Z,5.70
2018-06-23T01:12:32.731Z,4.33
2018-06-23T01:15:01.728Z,7.47
2018-06-23T01:17:30.721Z,7.50
2018-06-23T01:20:00.597Z,4.80
2018-06-23T01:22:29.596Z,8.10
2018-06-23T01:24:58.552Z,6.40
2018-06-23T01:27:27.552Z,6.23
2018-06-23T01:29:56.502Z,5.60
2018-06-23T01:32:25.530Z,6.63
2018-06-23T01:34:54.482Z,8.23
2018-06-23T01:37:23.471Z,6.80
2018-06-23T01:39:52.425Z,7.60
2018-06-23T01:42:21.418Z,4.97
2018-06-23T01:44:50.381Z,8.87
2018-06-23T01:47:19.346Z,6.57
2018-06-23T01:49:48.291Z,5.37
2018-06-23T01:52:17.269Z,7.83
2018-06-23T01:54:46.256Z,11.97
2018-06-23T01:57:15.285Z,10.63
2018-06-23T01:59:44.229Z,8.40
2018-06-23T02:02:13.256Z,7.50
2018-06-23T02:04:42.211Z,6.67
2018-06-23T02:07:11.181Z,6.17
2018-06-23T02:09:40.176Z,7.00
2018-06-23T02:12:09.111Z,9.17
2018-06-23T02:14:43.250Z,5.50
2018-06-23T02:17:17.262Z,10.03
2018-06-23T02:19:51.354Z,6.00
2018-06-23T02:22:25.571Z,11.47
2018-06-23T02:24:59.741Z,7.47
2018-06-23T02:27:33.932Z,11.73
2018-06-23T02:30:07.894Z,9.30
2018-06-23T02:32:41.940Z,11.53
2018-06-23T02:35:10.895Z,10.37
2018-06-23T02:37:40.374Z,6.03
2018-06-23T02:40:09.602Z,9.60
2018-06-23T02:42:38.543Z,8.97
2018-06-23T02:45:07.997Z,12.33
2018-06-23T02:47:37.298Z,11.03
2018-06-23T02:50:06.315Z,9.80
2018-06-23T02:52:35.265Z,10.53
2018-06-23T02:55:04.266Z,9.27
2018-06-23T02:57:33.256Z,10.13
2018-06-23T03:00:02.261Z,7.63
2018-06-23T03:02:31.225Z,12.37
2018-06-23T03:05:00.230Z,7.67
2018-06-23T03:07:29.186Z,8.30
2018-06-23T03:09:58.175Z,9.63
2018-06-23T03:12:27.130Z,9.27
2018-06-23T03:14:56.158Z,11.33
2018-06-23T03:17:25.110Z,15.07
2018-06-23T03:19:54.100Z,8.30
2018-06-23T03:22:23.052Z,7.60
2018-06-23T03:24:52.031Z,12.23
2018-06-23T03:27:21.113Z,10.10
2018-06-23T03:29:50.110Z,12.03
2018-06-23T03:32:19.071Z,6.90
2018-06-23T03:34:48.083Z,8.93
2018-06-23T03:37:17.082Z,8.27
2018-06-23T03:39:46.104Z,9.20
2018-06-23T03:42:15.058Z,11.23
2018-06-23T03:44:44.053Z,8.07
2018-06-23T03:47:13.026Z,8.73
2018-06-23T03:49:42.061Z,10.10
2018-06-23T03:52:11.056Z,8.57
2018-06-23T03:54:40.032Z,5.77
2018-06-23T03:57:08.982Z,8.60
2018-06-23T03:59:37.999Z,9.43
2018-06-23T04:02:06.946Z,10.10
2018-06-23T04:04:35.891Z,10.37
2018-06-23T04:07:04.919Z,8.30
2018-06-23T04:09:33.922Z,7.00
2018-06-23T04:12:02.942Z,13.90
2018-06-23T04:14:32.013Z,10.40
2018-06-23T04:17:01.004Z,8.13
2018-06-23T04:19:29.982Z,7.07
2018-06-23T04:21:58.970Z,9.13
2018-06-23T04:24:27.928Z,6.30
2018-06-23T04:26:56.913Z,9.17
2018-06-23T04:29:25.843Z,8.37
2018-06-23T04:31:54.891Z,8.40
2018-06-23T04:34:23.883Z,8.17
2018-06-23T04:36:52.919Z,10.13
2018-06-23T04:39:21.889Z,6.17
2018-06-23T04:41:50.860Z,8.40
2018-06-23T04:44:19.809Z,8.27
2018-06-23T04:46:48.804Z,9.37
2018-06-23T04:49:17.767Z,12.17
2018-06-23T04:51:46.804Z,6.63
2018-06-23T04:54:15.723Z,8.80
2018-06-23T04:56:44.675Z,8.43
2018-06-23T04:59:13.674Z,7.07
2018-06-23T05:01:42.676Z,7.07
2018-06-23T05:04:11.605Z,12.17
2018-06-23T05:06:40.558Z,7.60
2018-06-23T05:09:09.662Z,10.87
2018-06-23T05:11:38.636Z,9.10
2018-06-23T05:14:07.604Z,6.70
2018-06-23T05:16:36.521Z,8.77
2018-06-23T05:19:05.535Z,7.47
2018-06-23T05:21:34.485Z,5.70
2018-06-23T05:24:03.493Z,5.30
2018-06-23T05:26:32.446Z,11.03
2018-06-23T05:29:01.470Z,9.27
2018-06-23T05:31:30.430Z,6.23
2018-06-23T05:33:59.414Z,8.23
2018-06-23T05:36:28.363Z,11.47
2018-06-23T05:38:57.364Z,8.53
2018-06-23T05:41:26.312Z,7.33
2018-06-23T05:43:55.564Z,9.33
2018-06-23T05:46:24.572Z,7.53
2018-06-23T05:48:53.561Z,8.83
2018-06-23T05:51:22.567Z,11.30
2018-06-23T05:53:51.512Z,8.40
2018-06-23T05:56:20.447Z,8.70
2018-06-23T05:58:49.439Z,10.90
2018-06-23T06:01:18.430Z,6.13
2018-06-23T06:03:47.436Z,11.63
2018-06-23T06:06:16.434Z,8.07
2018-06-23T06:08:45.425Z,10.73
2018-06-23T06:11:14.394Z,12.10
2018-06-23T06:13:43.514Z,7.40
2018-06-23T06:16:12.486Z,5.57
2018-06-23T06:18:41.442Z,12.37
2018-06-23T06:21:10.442Z,7.70
2018-06-23T06:23:39.395Z,7.53
2018-06-23T06:26:08.430Z,4.80
2018-06-23T06:28:37.375Z,6.07
2018-06-23T06:31:06.415Z,6.00
2018-06-23T06:33:35.371Z,9.60
2018-06-23T06:36:04.355Z,8.27
2018-06-23T06:38:33.331Z,5.67
2018-06-23T06:41:02.330Z,8.90
2018-06-23T06:43:31.282Z,6.37
2018-06-23T06:46:00.263Z,6.63
2018-06-23T06:48:29.223Z,9.80
2018-06-23T06:50:58.205Z,9.47
2018-06-23T06:53:27.193Z,11.53
2018-06-23T06:55:56.176Z,6.00
2018-06-23T06:58:25.144Z,10.63
2018-06-23T07:00:54.131Z,10.47
2018-06-23T07:03:23.095Z,8.50
2018-06-23T07:05:52.071Z,9.70
2018-06-23T07:08:21.030Z,11.10
2018-06-23T07:10:49.995Z,9.20
2018-06-23T07:13:18.954Z,7.60
2018-06-23T07:15:47.903Z,8.30
2018-06-23T07:18:16.942Z,10.10
2018-06-23T07:20:45.922Z,10.30
2018-06-23T07:23:14.895Z,6.87
2018-06-23T07:25:43.854Z,8.27
2018-06-23T07:28:12.852Z,7.43
2018-06-23T07:30:41.819Z,9.83
2018-06-23T07:33:10.821Z,7.97
2018-06-23T07:35:39.752Z,9.40
2018-06-23T07:38:08.738Z,8.20
2018-06-23T07:40:37.727Z,9.93
2018-06-23T07:43:06.995Z,9.47
2018-06-23T07:45:35.945Z,12.23
2018-06-23T07:48:04.987Z,7.37
2018-06-23T07:50:33.947Z,6.90
2018-06-23T07:53:02.923Z,9.30
2018-06-23T07:55:31.900Z,7.27
2018-06-23T07:58:00.918Z,9.13
2018-06-23T08:00:29.867Z,8.70
2018-06-23T08:02:58.876Z,6.70
2018-06-23T08:05:27.819Z,8.20
2018-06-23T08:07:56.823Z,4.80
2018-06-23T08:10:25.793Z,7.17
2018-06-23T08:12:54.824Z,6.20
2018-06-23T08:15:23.774Z,6.90
2018-06-23T08:17:52.701Z,5.37
2018-06-23T08:20:21.702Z,3.67
2018-06-23T08:22:51.186Z,4.67
2018-06-23T08:25:20.187Z,4.87
2018-06-23T08:27:49.158Z,4.47
2018-06-23T08:30:18.155Z,5.00
2018-06-23T08:32:47.115Z,3.97
2018-06-23T08:35:16.130Z,5.30
2018-06-23T08:37:45.125Z,4.33
2018-06-23T08:40:14.186Z,4.40
2018-06-23T08:42:43.213Z,5.63
2018-06-23T08:45:12.263Z,3.00
2018-06-23T08:47:41.434Z,3.00
2018-06-23T08:50:10.443Z,3.90
2018-06-23T08:52:39.393Z,5.17
2018-06-23T08:55:08.398Z,6.00
2018-06-23T08:57:37.377Z,5.20
2018-06-23T09:00:06.799Z,3.73
2018-06-23T09:02:35.779Z,3.93
2018-06-23T09:05:04.808Z,5.17
2018-06-23T09:07:33.774Z,4.80
2018-06-23T09:10:02.804Z,2.53
2018-06-23T09:12:31.762Z,3.10
2018-06-23T09:15:00.750Z,5.00
2018-06-23T09:17:29.714Z,3.47
2018-06-23T09:19:58.697Z,5.17
2018-06-23T09:22:27.730Z,7.63
2018-06-23T09:24:56.775Z,2.90
2018-06-23T09:27:25.705Z,3.20
2018-06-23T09:29:54.722Z,2.47
2018-06-23T09:32:23.713Z,1.80
2018-06-23T09:34:52.803Z,2.80
2018-06-23T09:37:23.566Z,3.07
2018-06-23T09:39:54.099Z,3.07
2018-06-23T09:42:23.102Z,5.00
2018-06-23T09:44:52.115Z,4.97
2018-06-23T09:47:21.385Z,2.70
2018-06-23T09:49:50.341Z,3.67
2018-06-23T09:52:19.323Z,5.00
2018-06-23T09:54:48.385Z,4.47
2018-06-23T09:57:17.391Z,2.40
2018-06-23T09:59:46.369Z,2.60
2018-06-23T10:02:15.353Z,1.87
2018-06-23T10:04:44.318Z,2.57
2018-06-23T10:07:13.302Z,2.53
2018-06-23T10:09:42.275Z,1.60
2018-06-23T10:12:11.269Z,8.67
2018-06-23T10:14:40.254Z,2.63
2018-06-23T10:17:09.243Z,2.40
2018-06-23T10:19:38.274Z,4.67
2018-06-23T10:22:07.254Z,2.20
2018-06-23T10:24:36.234Z,2.37
2018-06-23T10:27:05.250Z,2.03
2018-06-23T10:29:34.225Z,1.43
2018-06-23T10:32:03.217Z,2.50
2018-06-23T10:34:32.161Z,2.47
2018-06-23T10:37:01.206Z,6.90
2018-06-23T10:39:30.145Z,2.53
2018-06-23T10:42:00.589Z,2.60
2018-06-23T10:44:29.594Z,3.83
2018-06-23T10:46:58.637Z,1.50
2018-06-23T10:49:27.592Z,3.30
2018-06-23T10:51:56.605Z,4.10
2018-06-23T10:54:25.647Z,2.60
2018-06-23T10:56:54.627Z,1.83
2018-06-23T10:59:23.605Z,1.93
2018-06-23T11:01:52.600Z,2.40
2018-06-23T11:04:21.544Z,2.30
2018-06-23T11:06:50.475Z,4.53
2018-06-23T11:09:19.495Z,4.27
2018-06-23T11:11:48.435Z,2.43
2018-06-23T11:14:17.406Z,1.53
2018-06-23T11:16:46.371Z,4.20
2018-06-23T11:19:15.375Z,1.97
2018-06-23T11:21:44.313Z,2.90
2018-06-23T11:24:13.323Z,2.30
2018-06-23T11:26:42.297Z,1.93
2018-06-23T11:29:11.346Z,3.37
2018-06-23T11:31:40.280Z,4.13
2018-06-23T11:34:09.254Z,2.77
2018-06-23T11:36:38.215Z,2.30
2018-06-23T11:39:09.574Z,3.00
2018-06-23T11:41:38.557Z,2.33
2018-06-23T11:44:07.586Z,1.47
2018-06-23T11:46:36.599Z,3.87
2018-06-23T11:49:05.624Z,1.53
2018-06-23T11:51:34.582Z,2.43
2018-06-23T11:54:03.664Z,2.63
2018-06-23T11:56:32.665Z,2.03
2018-06-23T11:59:01.680Z,1.93
2018-06-23T12:01:30.768Z,4.10
2018-06-23T12:03:59.787Z,5.23
2018-06-23T12:06:28.814Z,2.37
2018-06-23T12:08:57.872Z,2.87
2018-06-23T12:11:26.885Z,1.70
2018-06-23T12:13:55.889Z,2.30
2018-06-23T12:16:24.895Z,1.30
2018-06-23T12:18:53.853Z,2.37
2018-06-23T12:21:22.865Z,1.73
2018-06-23T12:23:51.838Z,2.63
2018-06-23T12:26:20.843Z,1.80
2018-06-23T12:28:49.795Z,1.80
2018-06-23T12:31:18.797Z,3.87
2018-06-23T12:33:47.759Z,2.70
2018-06-23T12:36:16.766Z,3.40
2018-06-23T12:38:45.735Z,3.17
2018-06-23T12:41:14.761Z,3.23
2018-06-23T12:43:43.690Z,3.53
2018-06-23T12:46:12.696Z,1.93
2018-06-23T12:48:41.996Z,1.60
2018-06-23T12:51:10.994Z,2.13
2018-06-23T12:53:39.934Z,1.47
2018-06-23T12:56:08.922Z,1.70
2018-06-23T12:58:37.882Z,2.63
2018-06-23T13:01:06.910Z,2.77
2018-06-23T13:03:35.845Z,2.77
2018-06-23T13:06:04.885Z,1.87
2018-06-23T13:08:33.835Z,3.87
2018-06-23T13:11:02.776Z,3.37
2018-06-23T13:13:31.788Z,2.27
2018-06-23T13:16:00.753Z,6.63
2018-06-23T13:18:29.753Z,2.40
2018-06-23T13:20:58.703Z,2.27
2018-06-23T13:23:27.693Z,2.73
2018-06-23T13:25:56.669Z,1.30
2018-06-23T13:28:25.720Z,3.47
2018-06-23T13:30:54.747Z,2.57
2018-06-23T13:33:23.755Z,1.90
2018-06-23T13:35:52.693Z,3.20
2018-06-23T13:38:21.770Z,3.10
2018-06-23T13:40:50.698Z,2.47
2018-06-23T13:43:19.654Z,2.23
2018-06-23T13:45:48.798Z,2.00
2018-06-23T13:48:17.769Z,1.60
2018-06-23T13:50:46.974Z,3.67
2018-06-23T13:53:15.994Z,1.80
2018-06-23T13:55:44.931Z,4.10
2018-06-23T13:58:13.922Z,2.33
2018-06-23T14:00:42.861Z,2.83
2018-06-23T14:03:11.897Z,2.40
2018-06-23T14:05:40.903Z,2.50
2018-06-23T14:08:09.898Z,1.93
2018-06-23T14:10:38.896Z,1.63
2018-06-23T14:13:07.900Z,2.90
2018-06-23T14:15:36.836Z,2.63
2018-06-23T14:18:05.788Z,7.30
2018-06-23T14:20:34.755Z,6.00
2018-06-23T14:23:03.776Z,3.50
2018-06-23T14:25:32.741Z,4.23
2018-06-23T14:28:01.693Z,5.90
2018-06-23T14:30:30.673Z,4.73
2018-06-23T14:32:59.608Z,5.00
2018-06-23T14:35:28.602Z,3.27
2018-06-23T14:37:57.567Z,3.67
2018-06-23T14:40:26.566Z,3.40
2018-06-23T14:42:55.547Z,2.33
2018-06-23T14:45:24.669Z,2.37
2018-06-23T14:47:53.680Z,2.20
2018-06-23T14:50:22.670Z,2.30
2018-06-23T14:52:51.606Z,2.40
2018-06-23T14:55:20.604Z,2.77
2018-06-23T14:57:49.618Z,4.80
2018-06-23T15:00:18.606Z,2.40
2018-06-23T15:02:47.579Z,3.47
2018-06-23T15:05:16.577Z,3.37
2018-06-23T15:07:45.557Z,2.67
2018-06-23T15:10:25.544Z,1.83
2018-06-23T15:13:05.523Z,2.87
2018-06-23T15:15:34.493Z,2.90
2018-06-23T15:18:03.475Z,3.47
2018-06-23T15:20:32.495Z,3.97
2018-06-23T15:23:01.471Z,3.70
2018-06-23T15:25:30.461Z,1.90
2018-06-23T15:27:59.474Z,2.20
2018-06-23T15:30:28.493Z,4.00
2018-06-23T15:32:57.439Z,3.43
2018-06-23T15:35:26.447Z,3.97
2018-06-23T15:37:55.406Z,2.23
2018-06-23T15:40:24.408Z,2.20
2018-06-23T15:42:53.341Z,4.57
2018-06-23T15:45:22.375Z,2.40
2018-06-23T15:47:51.418Z,5.13
2018-06-23T15:50:20.405Z,4.67
2018-06-23T15:52:49.415Z,6.23
2018-06-23T15:55:18.441Z,3.23
2018-06-23T15:57:47.425Z,1.90
2018-06-23T16:00:16.382Z,4.30
2018-06-23T16:02:45.383Z,3.00
2018-06-23T16:05:14.339Z,1.90
2018-06-23T16:07:43.330Z,2.53
2018-06-23T16:10:23.410Z,2.07
2018-06-23T16:12:52.827Z,2.20
2018-06-23T16:15:21.777Z,2.67
2018-06-23T16:17:50.806Z,2.33
2018-06-23T16:20:19.797Z,2.60
2018-06-23T16:22:49.027Z,7.63
2018-06-23T16:25:17.975Z,2.47
2018-06-23T16:27:46.985Z,2.27
2018-06-23T16:30:15.983Z,2.23
2018-06-23T16:32:45.003Z,3.33
2018-06-23T16:35:14.143Z,3.90
2018-06-23T16:37:43.065Z,2.30
2018-06-23T16:40:11.994Z,3.30
2018-06-23T16:42:40.974Z,1.70
2018-06-23T16:45:09.903Z,2.10
2018-06-23T16:47:38.874Z,2.33
2018-06-23T16:50:07.834Z,2.87
2018-06-23T16:52:36.876Z,2.17
2018-06-23T16:55:05.827Z,2.07
2018-06-23T16:57:34.805Z,3.10
2018-06-23T17:00:03.772Z,2.07
2018-06-23T17:02:32.753Z,2.50
2018-06-23T17:05:01.952Z,2.30
2018-06-23T17:07:30.984Z,1.97
2018-06-23T17:09:59.915Z,1.83
2018-06-23T17:12:28.900Z,5.53
2018-06-23T17:14:57.923Z,3.60
2018-06-23T17:17:26.904Z,2.63
2018-06-23T17:19:55.894Z,3.87
2018-06-23T17:22:24.844Z,2.40
2018-06-23T17:24:53.873Z,2.20
2018-06-23T17:27:22.793Z,2.90
2018-06-23T17:29:51.926Z,2.70
2018-06-23T17:32:22.001Z,2.50
2018-06-23T17:34:52.455Z,1.70
2018-06-23T17:37:21.653Z,4.17
2018-06-23T17:39:50.773Z,2.83
2018-06-23T17:42:19.744Z,1.93
2018-06-23T17:44:48.716Z,2.73
2018-06-23T17:47:17.695Z,5.03
2018-06-23T17:49:46.942Z,2.37
2018-06-23T17:52:15.890Z,2.20
2018-06-23T17:54:44.906Z,3.03
2018-06-23T17:57:13.980Z,3.70
2018-06-23T17:59:42.903Z,3.23
2018-06-23T18:02:11.899Z,1.90
2018-06-23T18:04:40.935Z,4.63
2018-06-23T18:07:10.090Z,3.47
2018-06-23T18:09:39.094Z,1.70
2018-06-23T18:12:08.049Z,2.97
2018-06-23T18:14:37.098Z,3.30
2018-06-23T18:17:06.107Z,2.20
2018-06-23T18:19:35.345Z,2.67
2018-06-23T18:22:04.281Z,2.87
2018-06-23T18:24:33.271Z,2.40
2018-06-23T18:27:02.235Z,2.20
2018-06-23T18:29:31.222Z,4.23
2018-06-23T18:32:00.930Z,7.93
2018-06-23T18:34:29.965Z,2.77
2018-06-23T18:36:58.902Z,6.10
2018-06-23T18:39:27.895Z,2.37
2018-06-23T18:41:56.866Z,2.43
2018-06-23T18:44:25.894Z,2.40
2018-06-23T18:46:55.106Z,3.70
2018-06-23T18:49:24.110Z,2.17
2018-06-23T18:51:53.049Z,9.37
2018-06-23T18:54:22.071Z,6.80
2018-06-23T18:56:51.014Z,4.60
2018-06-23T18:59:19.968Z,3.40
2018-06-23T19:01:48.933Z,2.97
2018-06-23T19:04:17.944Z,3.47
2018-06-23T19:06:46.927Z,2.70
2018-06-23T19:09:16.695Z,2.80
2018-06-23T19:11:45.683Z,5.10
2018-06-23T19:14:14.642Z,1.80
2018-06-23T19:16:43.694Z,2.30
2018-06-23T19:19:12.641Z,2.20
2018-06-23T19:21:41.619Z,2.83
2018-06-23T19:24:10.613Z,4.57
2018-06-23T19:26:39.594Z,2.33
2018-06-23T19:29:08.604Z,3.47
2018-06-23T19:31:37.602Z,2.37
2018-06-23T19:34:06.558Z,1.90
2018-06-23T19:36:35.564Z,3.03
2018-06-23T19:39:06.521Z,2.50
2018-06-23T19:41:35.538Z,2.70
2018-06-23T19:44:04.604Z,2.30
2018-06-23T19:46:33.578Z,2.13
2018-06-23T19:49:02.556Z,3.67
2018-06-23T19:51:31.561Z,2.40
2018-06-23T19:54:00.634Z,3.13
2018-06-23T19:56:29.555Z,3.10
2018-06-23T19:58:58.580Z,2.63
2018-06-23T20:01:27.600Z,5.00
2018-06-23T20:03:56.599Z,2.13
2018-06-23T20:06:25.610Z,5.30
2018-06-23T20:08:54.573Z,8.73
2018-06-23T20:11:23.506Z,4.93
2018-06-23T20:13:52.498Z,2.97
2018-06-23T20:16:21.483Z,2.90
2018-06-23T20:18:50.465Z,3.23
2018-06-23T20:21:19.409Z,2.30
2018-06-23T20:23:48.440Z,2.80
2018-06-23T20:26:17.393Z,3.80
2018-06-23T20:28:46.408Z,3.00
2018-06-23T20:31:15.351Z,3.63
2018-06-23T20:33:44.343Z,2.90
2018-06-23T20:36:13.411Z,6.67
2018-06-23T20:38:42.418Z,3.40
2018-06-23T20:41:11.391Z,3.17
2018-06-23T20:43:40.457Z,3.40
2018-06-23T20:46:09.417Z,3.60
2018-06-23T20:48:38.442Z,3.57
2018-06-23T20:51:07.459Z,6.53
2018-06-23T20:53:36.495Z,4.70
2018-06-23T20:56:05.486Z,2.97
2018-06-23T20:58:34.526Z,3.40
2018-06-23T21:01:03.532Z,3.27
2018-06-23T21:03:32.515Z,4.27
2018-06-23T21:06:01.510Z,2.93
2018-06-23T21:08:30.514Z,5.10
2018-06-23T21:10:59.449Z,3.30
2018-06-23T21:13:28.463Z,3.57
2018-06-23T21:15:57.427Z,2.80
2018-06-23T21:18:26.451Z,3.17
2018-06-23T21:20:55.402Z,2.67
2018-06-23T21:23:24.410Z,3.00
2018-06-23T21:25:53.532Z,2.83
2018-06-23T21:28:22.546Z,3.30
2018-06-23T21:30:51.586Z,3.47
2018-06-23T21:33:20.640Z,4.10
2018-06-23T21:35:49.633Z,3.80
2018-06-23T21:38:18.586Z,4.20
2018-06-23T21:40:47.606Z,3.43
2018-06-23T21:43:16.561Z,4.40
2018-06-23T21:45:45.563Z,3.50
2018-06-23T21:48:14.532Z,5.23
2018-06-23T21:50:43.534Z,5.30
2018-06-23T21:53:12.538Z,3.40
2018-06-23T21:55:41.573Z,3.67
2018-06-23T21:58:10.557Z,6.67
2018-06-23T22:00:42.023Z,4.00
2018-06-23T22:03:12.218Z,3.50
2018-06-23T22:05:41.246Z,3.93
2018-06-23T22:08:10.602Z,3.40
2018-06-23T22:10:39.656Z,3.20
2018-06-23T22:13:08.639Z,3.73
2018-06-23T22:15:37.617Z,4.70
2018-06-23T22:18:06.576Z,5.00
2018-06-23T22:20:35.560Z,2.90
2018-06-23T22:23:04.498Z,5.10
2018-06-23T22:25:33.630Z,2.97
2018-06-23T22:28:02.720Z,4.30
2018-06-23T22:30:31.715Z,2.77
2018-06-23T22:33:00.634Z,3.50
2018-06-23T22:35:29.632Z,3.00
2018-06-23T22:37:58.634Z,3.30
2018-06-23T22:40:27.685Z,3.20
2018-06-23T22:42:56.656Z,3.03
2018-06-23T22:45:25.629Z,5.70
2018-06-23T22:47:54.632Z,3.87
2018-06-23T22:50:23.637Z,4.50
2018-06-23T22:52:52.637Z,3.50
2018-06-23T22:55:21.593Z,4.47
2018-06-23T22:57:50.588Z,3.43
2018-06-23T23:00:19.568Z,3.20
2018-06-23T23:02:48.575Z,3.50
2018-06-23T23:05:17.550Z,3.07
2018-06-23T23:07:46.551Z,2.90
2018-06-23T23:10:15.540Z,3.90
2018-06-23T23:12:44.600Z,4.20
2018-06-23T23:15:13.542Z,2.83
2018-06-23T23:17:42.606Z,3.30
2018-06-23T23:20:11.591Z,3.30
2018-06-23T23:22:40.607Z,3.37
2018-06-23T23:25:09.562Z,4.77
2018-06-23T23:27:38.551Z,4.93
2018-06-23T23:30:08.307Z,3.47
2018-06-23T23:32:37.298Z,4.20
2018-06-23T23:35:06.291Z,4.67
2018-06-23T23:37:35.298Z,4.00
2018-06-23T23:40:04.326Z,4.40
2018-06-23T23:42:33.373Z,4.70
2018-06-23T23:45:02.322Z,3.50
2018-06-23T23:47:31.375Z,4.67
2018-06-23T23:50:00.455Z,3.70
2018-06-23T23:52:29.481Z,4.03
2018-06-23T23:54:58.475Z,3.50
2018-06-23T23:57:27.529Z,3.10
2018-06-23T23:59:56.467Z,3.30
